Time;durP1;ratioP1;P1;durP2;ratioP2;P2;SDS_P1;SDS_P2;PMS_P1;PMS_P2;Temp;Humidity;BMP_temperature;BMP_pressure;BME280_temperature;BME280_humidity;BME280_pressure;Samples;Min_cycle;Max_cycle;Signal;HPM_P1;HPM_P2
2022/09/02 00:00:19;;;;;;;1.80;0.68;;;;;;;;;;5003887;28;20053;-64
2022/09/02 00:02:45;;;;;;;;;;;;;;;;;;5010756;28;20080;-63
2022/09/02 00:05:12;;;;;;;1.13;0.60;;;;;;;;;;5004464;28;19983;-63
2022/09/02 00:07:40;;;;;;;2.60;0.70;;;;;;;;;;5009260;28;20057;-62
2022/09/02 00:10:06;;;;;;;1.58;0.90;;;;;;;;;;5003622;28;20053;-63
2022/09/02 00:12:33;;;;;;;0.90;0.75;;;;;;;;;;5029540;28;20068;-62
2022/09/02 00:15:01;;;;;;;2.17;0.70;;;;;;;;;;5030702;28;20053;-65
2022/09/02 00:17:28;;;;;;;0.90;0.70;;;;;;;;;;5003402;28;20053;-66
2022/09/02 00:19:55;;;;;;;1.38;0.70;;;;;;;;;;5009969;28;20054;-66
2022/09/02 00:22:22;;;;;;;2.00;0.80;;;;;;;;;;5004046;28;20048;-66
2022/09/02 00:24:49;;;;;;;6.38;0.90;;;;;;;;;;5010038;28;20038;-67
2022/09/02 00:27:16;;;;;;;2.15;0.50;;;;;;;;;;5014813;28;20057;-66
2022/09/02 00:29:43;;;;;;;0.73;0.47;;;;;;;;;;5050108;28;20083;-66
2022/09/02 00:32:11;;;;;;;0.73;0.55;;;;;;;;;;5036737;28;20041;-65
2022/09/02 00:34:38;;;;;;;3.35;0.75;;;;;;;;;;5050065;28;20102;-65
2022/09/02 00:37:04;;;;;;;4.20;0.68;;;;;;;;;;5043546;28;20066;-65
2022/09/02 00:39:32;;;;;;;3.45;0.60;;;;;;;;;;5049863;28;20052;-65
2022/09/02 00:42:00;;;;;;;2.50;0.60;;;;;;;;;;5041153;28;20081;-66
2022/09/02 00:44:27;;;;;;;0.77;0.55;;;;;;;;;;5013387;28;20057;-66
2022/09/02 00:46:53;;;;;;;1.85;0.73;;;;;;;;;;5007468;28;20054;-65
2022/09/02 00:49:24;;;;;;;0.90;0.60;;;;;;;;;;5049523;28;20052;-66
2022/09/02 00:51:53;;;;;;;1.05;0.60;;;;;;;;;;5035367;28;20053;-65
2022/09/02 00:54:21;;;;;;;1.80;0.77;;;;;;;;;;5008185;28;20069;-65
2022/09/02 00:56:49;;;;;;;1.45;0.60;;;;;;;;;;5012706;28;20155;-66
2022/09/02 00:59:22;;;;;;;1.10;0.75;;;;;;;;;;4991494;28;20058;-65
2022/09/02 01:01:49;;;;;;;2.53;0.40;;;;;;;;;;5026416;28;20053;-65
2022/09/02 01:04:16;;;;;;;2.67;1.23;;;;;;;;;;5035932;28;20049;-66
2022/09/02 01:06:44;;;;;;;1.05;0.60;;;;;;;;;;5008054;28;20054;-64
2022/09/02 01:09:13;;;;;;;1.10;0.50;;;;;;;;;;5014577;28;20057;-65
2022/09/02 01:11:42;;;;;;;1.27;0.70;;;;;;;;;;5029320;28;20054;-64
2022/09/02 01:14:09;;;;;;;;;;;;;;;;;;5001698;28;20041;-65
2022/09/02 01:16:38;;;;;;;0.80;0.55;;;;;;;;;;4989767;28;19933;-62
2022/09/02 01:19:10;;;;;;;0.88;0.50;;;;;;;;;;4985509;28;20058;-66
2022/09/02 01:21:37;;;;;;;2.00;0.50;;;;;;;;;;4990296;28;20062;-62
2022/09/02 01:24:05;;;;;;;2.47;1.00;;;;;;;;;;4990911;28;20092;-66
2022/09/02 01:26:32;;;;;;;0.98;0.60;;;;;;;;;;5009058;28;20148;-66
2022/09/02 01:28:59;;;;;;;5.05;0.80;;;;;;;;;;5015419;28;20062;-63
2022/09/02 01:31:25;;;;;;;3.50;0.60;;;;;;;;;;4989566;28;20062;-65
2022/09/02 01:33:52;;;;;;;1.35;0.60;;;;;;;;;;4987045;28;20058;-66
2022/09/02 01:36:18;;;;;;;0.68;0.68;;;;;;;;;;5009243;28;20085;-64
2022/09/02 01:38:45;;;;;;;1.77;0.55;;;;;;;;;;5008858;28;20054;-62
2022/09/02 01:41:13;;;;;;;1.13;0.43;;;;;;;;;;5022602;28;20063;-66
2022/09/02 01:43:40;;;;;;;0.73;0.60;;;;;;;;;;5028393;28;20061;-66
2022/09/02 01:46:06;;;;;;;1.23;0.60;;;;;;;;;;4987868;28;20065;-66
2022/09/02 01:48:34;;;;;;;1.25;0.63;;;;;;;;;;4988933;28;20069;-66
2022/09/02 01:51:02;;;;;;;1.48;0.65;;;;;;;;;;5004941;28;20092;-66
2022/09/02 01:53:29;;;;;;;1.42;0.50;;;;;;;;;;5009075;28;20112;-64
2022/09/02 01:55:56;;;;;;;0.68;0.60;;;;;;;;;;4991922;28;20110;-66
2022/09/02 01:58:25;;;;;;;1.67;0.70;;;;;;;;;;4988949;28;20054;-66
2022/09/02 02:00:52;;;;;;;0.85;0.50;;;;;;;;;;4992896;28;20058;-66
2022/09/02 02:03:19;;;;;;;0.60;0.50;;;;;;;;;;5008404;28;20053;-66
2022/09/02 02:05:45;;;;;;;1.85;0.55;;;;;;;;;;5013085;28;20056;-66
2022/09/02 02:08:12;;;;;;;0.80;0.50;;;;;;;;;;5008443;28;20138;-66
2022/09/02 02:10:40;;;;;;;0.70;0.50;;;;;;;;;;5000995;28;20089;-66
2022/09/02 02:13:07;;;;;;;0.85;0.65;;;;;;;;;;5004865;28;20054;-67
2022/09/02 02:15:36;;;;;;;0.73;0.60;;;;;;;;;;5008914;28;20052;-66
2022/09/02 02:18:05;;;;;;;0.70;0.60;;;;;;;;;;5020873;28;20057;-63
2022/09/02 02:20:31;;;;;;;3.00;0.50;;;;;;;;;;5027424;28;20057;-64
2022/09/02 02:22:58;;;;;;;1.88;0.60;;;;;;;;;;5007320;28;20111;-64
2022/09/02 02:25:25;;;;;;;2.28;0.38;;;;;;;;;;5007907;28;20054;-66
2022/09/02 02:27:52;;;;;;;1.05;0.85;;;;;;;;;;5002385;28;20086;-65
2022/09/02 02:30:19;;;;;;;2.97;0.55;;;;;;;;;;5008217;28;20076;-66
2022/09/02 02:32:47;;;;;;;0.75;0.50;;;;;;;;;;5004020;28;20053;-65
2022/09/02 02:35:14;;;;;;;1.52;0.60;;;;;;;;;;5006541;28;20050;-66
2022/09/02 02:37:42;;;;;;;2.67;0.60;;;;;;;;;;5007719;28;20079;-65
2022/09/02 02:40:10;;;;;;;1.48;0.65;;;;;;;;;;5001648;28;20061;-66
2022/09/02 02:42:37;;;;;;;1.35;0.50;;;;;;;;;;5008233;28;20072;-66
2022/09/02 02:45:08;;;;;;;3.08;0.60;;;;;;;;;;5002237;28;20045;-65
2022/09/02 02:47:37;;;;;;;2.70;0.90;;;;;;;;;;5007759;28;20053;-66
2022/09/02 02:50:06;;;;;;;1.70;0.57;;;;;;;;;;5001335;28;20058;-63
2022/09/02 02:52:32;;;;;;;0.80;0.47;;;;;;;;;;5007187;28;20046;-67
2022/09/02 02:54:59;;;;;;;2.63;0.70;;;;;;;;;;5004850;28;20054;-66
2022/09/02 02:57:26;;;;;;;2.72;0.60;;;;;;;;;;5003864;28;20058;-66
2022/09/02 02:59:52;;;;;;;1.58;0.70;;;;;;;;;;5007464;28;20046;-66
2022/09/02 03:02:19;;;;;;;1.48;0.52;;;;;;;;;;5001570;28;20108;-66
2022/09/02 03:04:47;;;;;;;4.07;0.50;;;;;;;;;;5007760;28;20050;-67
2022/09/02 03:07:15;;;;;;;1.00;0.50;;;;;;;;;;5001553;28;20061;-64
2022/09/02 03:09:41;;;;;;;5.15;0.80;;;;;;;;;;5007267;28;20045;-66
2022/09/02 03:12:08;;;;;;;0.88;0.60;;;;;;;;;;5002347;28;20054;-66
2022/09/02 03:14:36;;;;;;;1.40;0.63;;;;;;;;;;5006244;28;20050;-65
2022/09/02 03:17:03;;;;;;;1.42;0.65;;;;;;;;;;5007419;28;20090;-66
2022/09/02 03:19:31;;;;;;;0.50;0.50;;;;;;;;;;5000893;28;20057;-66
2022/09/02 03:21:58;;;;;;;1.05;0.70;;;;;;;;;;5008075;28;20052;-67
2022/09/02 03:24:26;;;;;;;0.90;0.60;;;;;;;;;;4989830;28;20061;-66
2022/09/02 03:26:53;;;;;;;0.82;0.68;;;;;;;;;;4987424;28;20109;-66
2022/09/02 03:29:20;;;;;;;1.23;0.60;;;;;;;;;;4981929;28;20054;-66
2022/09/02 03:31:47;;;;;;;3.25;0.70;;;;;;;;;;5010534;28;20063;-66
2022/09/02 03:34:14;;;;;;;3.22;0.60;;;;;;;;;;5020894;28;20040;-67
2022/09/02 03:36:42;;;;;;;3.70;0.70;;;;;;;;;;5026944;28;20057;-66
2022/09/02 03:39:10;;;;;;;0.80;0.60;;;;;;;;;;5012379;28;20096;-66
2022/09/02 03:41:39;;;;;;;1.00;0.57;;;;;;;;;;4987881;28;20100;-66
2022/09/02 03:44:07;;;;;;;1.35;0.70;;;;;;;;;;4983939;28;20050;-68
2022/09/02 03:46:34;;;;;;;1.55;0.50;;;;;;;;;;4987386;28;20057;-65
2022/09/02 03:49:01;;;;;;;1.83;0.55;;;;;;;;;;4983087;28;20145;-65
2022/09/02 03:51:27;;;;;;;1.42;0.68;;;;;;;;;;4997008;28;20053;-65
2022/09/02 03:53:54;;;;;;;1.70;0.80;;;;;;;;;;5006819;28;20065;-66
2022/09/02 03:56:21;;;;;;;2.97;0.60;;;;;;;;;;5001237;28;20049;-66
2022/09/02 03:58:51;;;;;;;0.73;0.63;;;;;;;;;;5022922;28;20057;-64
2022/09/02 04:01:20;;;;;;;1.23;0.75;;;;;;;;;;4985298;28;20065;-65
2022/09/02 04:03:47;;;;;;;0.98;0.57;;;;;;;;;;5004065;28;20290;-66
2022/09/02 04:06:15;;;;;;;2.08;0.60;;;;;;;;;;4992364;28;20100;-65
2022/09/02 04:08:42;;;;;;;4.68;0.88;;;;;;;;;;5014495;28;20053;-67
2022/09/02 04:11:10;;;;;;;2.92;0.77;;;;;;;;;;5006806;28;20116;-66
2022/09/02 04:13:36;;;;;;;0.85;0.70;;;;;;;;;;5010596;28;20184;-66
2022/09/02 04:16:07;;;;;;;1.77;0.75;;;;;;;;;;5007326;28;20085;-65
2022/09/02 04:18:34;;;;;;;0.65;0.50;;;;;;;;;;5013905;28;20053;-63
2022/09/02 04:21:00;;;;;;;0.55;0.50;;;;;;;;;;5011911;28;20083;-63
2022/09/02 04:23:27;;;;;;;2.33;0.70;;;;;;;;;;5009604;28;20057;-63
2022/09/02 04:25:54;;;;;;;2.42;0.60;;;;;;;;;;5029807;28;20053;-64
2022/09/02 04:28:22;;;;;;;1.85;0.57;;;;;;;;;;5007278;28;20072;-65
2022/09/02 04:30:49;;;;;;;1.02;0.73;;;;;;;;;;5016863;28;20056;-63
2022/09/02 04:33:17;;;;;;;0.85;0.70;;;;;;;;;;5030394;28;20060;-66
2022/09/02 04:35:44;;;;;;;5.18;0.63;;;;;;;;;;5000793;28;20057;-64
2022/09/02 04:38:11;;;;;;;2.85;0.60;;;;;;;;;;5008601;28;20049;-64
2022/09/02 04:40:40;;;;;;;2.60;0.98;;;;;;;;;;5011785;28;20064;-62
2022/09/02 04:43:06;;;;;;;0.60;0.60;;;;;;;;;;5013387;28;20045;-66
2022/09/02 04:45:33;;;;;;;4.18;0.90;;;;;;;;;;5006783;28;20056;-65
2022/09/02 04:48:01;;;;;;;1.95;0.73;;;;;;;;;;5012908;28;20068;-65
2022/09/02 04:50:29;;;;;;;1.10;0.60;;;;;;;;;;5006911;28;20068;-66
2022/09/02 04:52:57;;;;;;;0.50;0.50;;;;;;;;;;5012965;28;20045;-66
2022/09/02 04:55:24;;;;;;;1.63;0.70;;;;;;;;;;5006953;28;20060;-66
2022/09/02 04:57:51;;;;;;;1.55;0.60;;;;;;;;;;5013024;28;20053;-65
2022/09/02 05:00:18;;;;;;;1.13;0.60;;;;;;;;;;5010886;28;20104;-65
2022/09/02 05:02:45;;;;;;;1.38;0.60;;;;;;;;;;5008370;28;20103;-65
2022/09/02 05:05:12;;;;;;;1.50;0.65;;;;;;;;;;5000968;28;20049;-65
2022/09/02 05:07:41;;;;;;;1.38;0.80;;;;;;;;;;5006519;28;20054;-67
2022/09/02 05:10:07;;;;;;;;;;;;;;;;;;5009454;28;20148;-66
2022/09/02 05:12:34;;;;;;;1.63;0.70;;;;;;;;;;5001945;28;19925;-66
2022/09/02 05:15:01;;;;;;;7.75;1.10;;;;;;;;;;5010485;28;20112;-66
2022/09/02 05:17:31;;;;;;;1.35;0.60;;;;;;;;;;5017527;28;20045;-66
2022/09/02 05:19:58;;;;;;;1.73;0.70;;;;;;;;;;5019510;28;20057;-66
2022/09/02 05:22:28;;;;;;;2.15;0.70;;;;;;;;;;5010883;28;20077;-66
2022/09/02 05:24:56;;;;;;;1.60;0.70;;;;;;;;;;5001188;28;20050;-67
2022/09/02 05:27:24;;;;;;;2.30;0.70;;;;;;;;;;5009876;28;20123;-65
2022/09/02 05:29:50;;;;;;;5.33;0.83;;;;;;;;;;5000587;28;20072;-66
2022/09/02 05:32:17;;;;;;;3.53;0.68;;;;;;;;;;5009904;28;20045;-66
2022/09/02 05:34:44;;;;;;;1.23;0.60;;;;;;;;;;5000193;28;20108;-65
2022/09/02 05:37:11;;;;;;;4.82;0.80;;;;;;;;;;5010117;28;20050;-66
2022/09/02 05:39:37;;;;;;;1.02;0.70;;;;;;;;;;5005263;28;20041;-66
2022/09/02 05:42:05;;;;;;;1.35;0.70;;;;;;;;;;5016700;28;20057;-66
2022/09/02 05:44:32;;;;;;;0.93;0.60;;;;;;;;;;5010808;28;20045;-67
2022/09/02 05:46:59;;;;;;;2.15;0.88;;;;;;;;;;5000619;28;20053;-65
2022/09/02 05:49:26;;;;;;;9.05;0.70;;;;;;;;;;5009531;28;20053;-66
2022/09/02 05:51:54;;;;;;;5.47;0.80;;;;;;;;;;5000625;28;20054;-66
2022/09/02 05:54:22;;;;;;;0.95;0.68;;;;;;;;;;5020187;28;20049;-66
2022/09/02 05:56:51;;;;;;;1.73;0.80;;;;;;;;;;5004112;28;20180;-63
2022/09/02 05:59:19;;;;;;;2.33;1.08;;;;;;;;;;5027032;28;20060;-62
2022/09/02 06:01:46;;;;;;;2.70;0.70;;;;;;;;;;5011173;28;20051;-66
2022/09/02 06:04:13;;;;;;;2.25;0.85;;;;;;;;;;4996955;28;20053;-66
2022/09/02 06:06:40;;;;;;;1.83;0.80;;;;;;;;;;5008612;28;20093;-63
2022/09/02 06:09:11;;;;;;;2.58;0.60;;;;;;;;;;5000599;28;20050;-64
2022/09/02 06:11:39;;;;;;;5.22;0.90;;;;;;;;;;5009525;28;20064;-64
2022/09/02 06:14:06;;;;;;;2.30;0.90;;;;;;;;;;5018362;28;20119;-64
2022/09/02 06:16:34;;;;;;;1.73;0.80;;;;;;;;;;5010514;28;20270;-61
2022/09/02 06:19:02;;;;;;;2.63;0.88;;;;;;;;;;5003689;28;20062;-63
2022/09/02 06:21:29;;;;;;;3.65;0.70;;;;;;;;;;5023096;28;20061;-64
2022/09/02 06:23:56;;;;;;;3.17;0.82;;;;;;;;;;5007760;28;20129;-64
2022/09/02 06:26:22;;;;;;;1.70;0.88;;;;;;;;;;4998265;28;20065;-62
2022/09/02 06:28:49;;;;;;;1.23;0.70;;;;;;;;;;5010521;28;20109;-63
2022/09/02 06:31:17;;;;;;;2.13;0.80;;;;;;;;;;5000267;28;20065;-63
2022/09/02 06:33:45;;;;;;;1.57;0.63;;;;;;;;;;5008994;28;20057;-62
2022/09/02 06:36:13;;;;;;;2.63;0.77;;;;;;;;;;5000025;28;20049;-64
2022/09/02 06:38:43;;;;;;;1.23;0.50;;;;;;;;;;5006507;28;20060;-62
2022/09/02 06:41:11;;;;;;;1.58;0.70;;;;;;;;;;5006694;28;20303;-64
2022/09/02 06:43:39;;;;;;;2.05;0.60;;;;;;;;;;5012253;28;20053;-63
2022/09/02 06:46:05;;;;;;;2.63;0.80;;;;;;;;;;5008490;28;20132;-64
2022/09/02 06:48:32;;;;;;;1.77;0.90;;;;;;;;;;5000069;28;20054;-64
2022/09/02 06:51:00;;;;;;;3.58;0.95;;;;;;;;;;5008143;28;20057;-62
2022/09/02 06:53:27;;;;;;;1.60;0.88;;;;;;;;;;4998051;28;20057;-64
2022/09/02 06:55:53;;;;;;;6.35;0.88;;;;;;;;;;5008966;28;20128;-64
2022/09/02 06:58:20;;;;;;;2.92;0.80;;;;;;;;;;5004909;28;20115;-65
2022/09/02 07:00:47;;;;;;;7.65;1.00;;;;;;;;;;5004564;28;20064;-64
2022/09/02 07:06:05;;;;;;;2.97;0.70;;;;;;;;;;5000565;28;20045;-63
2022/09/02 07:08:33;;;;;;;2.22;0.80;;;;;;;;;;5006459;28;20073;-63
2022/09/02 07:10:59;;;;;;;1.95;0.88;;;;;;;;;;5013690;28;20075;-63
2022/09/02 07:13:26;;;;;;;2.22;0.73;;;;;;;;;;5027099;28;20058;-64
2022/09/02 07:15:53;;;;;;;3.58;0.80;;;;;;;;;;4999990;28;20061;-62
2022/09/02 07:18:21;;;;;;;1.83;0.70;;;;;;;;;;5008999;28;20053;-65
2022/09/02 07:20:47;;;;;;;2.10;0.70;;;;;;;;;;4999518;28;20072;-63
2022/09/02 07:23:16;;;;;;;4.22;0.80;;;;;;;;;;5034158;28;20049;-63
2022/09/02 07:25:42;;;;;;;2.78;1.10;;;;;;;;;;5009426;28;20129;-60
2022/09/02 07:28:09;;;;;;;4.47;0.90;;;;;;;;;;5001525;28;20107;-64
2022/09/02 07:30:38;;;;;;;2.65;0.80;;;;;;;;;;5008891;28;20111;-62
2022/09/02 07:33:05;;;;;;;2.28;0.93;;;;;;;;;;4999491;28;20096;-62
2022/09/02 07:35:32;;;;;;;4.47;1.00;;;;;;;;;;5020410;28;20049;-63
2022/09/02 07:37:59;;;;;;;4.00;0.77;;;;;;;;;;5000711;28;20173;-60
2022/09/02 07:40:28;;;;;;;2.42;1.00;;;;;;;;;;5013731;28;20061;-63
2022/09/02 07:42:55;;;;;;;3.03;0.90;;;;;;;;;;5006146;28;20156;-65
2022/09/02 07:45:22;;;;;;;1.73;0.82;;;;;;;;;;5009616;28;20045;-61
2022/09/02 07:47:50;;;;;;;2.03;0.95;;;;;;;;;;5039558;28;20111;-60
2022/09/02 07:50:17;;;;;;;1.15;0.75;;;;;;;;;;5003482;28;20049;-60
2022/09/02 07:52:44;;;;;;;2.15;1.00;;;;;;;;;;5011000;28;20053;-61
2022/09/02 07:55:10;;;;;;;4.93;0.98;;;;;;;;;;5000595;28;20057;-59
2022/09/02 07:57:39;;;;;;;6.07;1.10;;;;;;;;;;5012270;28;20046;-63
2022/09/02 08:00:07;;;;;;;2.88;0.85;;;;;;;;;;5003745;28;20061;-59
2022/09/02 08:02:33;;;;;;;6.82;1.00;;;;;;;;;;5011529;28;20053;-62
2022/09/02 08:05:00;;;;;;;2.63;0.80;;;;;;;;;;5011158;28;20057;-62
2022/09/02 08:07:27;;;;;;;2.92;0.88;;;;;;;;;;5001642;28;20060;-59
2022/09/02 08:09:53;;;;;;;2.25;1.00;;;;;;;;;;5010175;28;20056;-63
2022/09/02 08:12:20;;;;;;;3.17;1.00;;;;;;;;;;4999405;28;20053;-60
2022/09/02 08:14:48;;;;;;;1.50;0.90;;;;;;;;;;5009470;28;20042;-64
2022/09/02 08:17:14;;;;;;;5.22;1.10;;;;;;;;;;4999203;28;20136;-64
2022/09/02 08:19:41;;;;;;;2.00;1.00;;;;;;;;;;5008030;28;20062;-63
2022/09/02 08:22:07;;;;;;;1.88;0.82;;;;;;;;;;5003725;28;20059;-62
2022/09/02 08:24:34;;;;;;;2.80;0.93;;;;;;;;;;5010178;28;20054;-62
2022/09/02 08:27:01;;;;;;;2.35;0.90;;;;;;;;;;5023808;28;20141;-62
2022/09/02 08:29:28;;;;;;;2.47;1.00;;;;;;;;;;5004569;28;20096;-63
2022/09/02 08:31:56;;;;;;;1.88;0.90;;;;;;;;;;5008092;28;20065;-64
2022/09/02 08:34:23;;;;;;;3.58;0.80;;;;;;;;;;5012930;28;20049;-63
2022/09/02 08:36:49;;;;;;;3.50;1.13;;;;;;;;;;5007913;28;20140;-63
2022/09/02 08:39:16;;;;;;;4.20;1.40;;;;;;;;;;5001454;28;20057;-62
2022/09/02 08:41:47;;;;;;;2.90;1.00;;;;;;;;;;5007786;28;20054;-63
2022/09/02 08:44:17;;;;;;;5.05;1.25;;;;;;;;;;5003119;28;20135;-64
2022/09/02 08:46:44;;;;;;;3.60;1.35;;;;;;;;;;5007926;28;20057;-64
2022/09/02 08:49:15;;;;;;;2.33;1.00;;;;;;;;;;5000720;28;20140;-64
2022/09/02 08:51:46;;;;;;;7.50;1.40;;;;;;;;;;5008574;28;20058;-64
2022/09/02 08:54:15;;;;;;;2.72;1.05;;;;;;;;;;5003780;28;20060;-63
2022/09/02 08:56:42;;;;;;;3.35;1.13;;;;;;;;;;5008285;28;20045;-60
2022/09/02 08:59:11;;;;;;;8.38;1.40;;;;;;;;;;5002940;28;20148;-63
2022/09/02 09:01:43;;;;;;;2.70;1.00;;;;;;;;;;5008966;28;20141;-62
2022/09/02 09:04:17;;;;;;;5.85;1.10;;;;;;;;;;4999647;28;20066;-63
2022/09/02 09:06:53;;;;;;;8.07;1.02;;;;;;;;;;5011148;28;20064;-63
2022/09/02 09:09:25;;;;;;;5.68;1.27;;;;;;;;;;5003135;28;20053;-63
2022/09/02 09:11:56;;;;;;;2.63;1.00;;;;;;;;;;5009229;28;20045;-64
2022/09/02 09:14:25;;;;;;;7.95;1.30;;;;;;;;;;5003076;28;20057;-60
2022/09/02 09:16:55;;;;;;;3.70;1.10;;;;;;;;;;5008792;28;20057;-64
2022/09/02 09:19:29;;;;;;;3.08;1.13;;;;;;;;;;4989574;28;20165;-62
2022/09/02 09:22:02;;;;;;;5.97;1.20;;;;;;;;;;5036744;28;20115;-67
2022/09/02 09:24:32;;;;;;;3.05;0.95;;;;;;;;;;5006055;28;20060;-62
2022/09/02 09:26:59;;;;;;;2.08;0.95;;;;;;;;;;5009255;28;20058;-61
2022/09/02 09:29:26;;;;;;;9.90;1.50;;;;;;;;;;5007657;28;20057;-63
2022/09/02 09:31:55;;;;;;;5.28;1.30;;;;;;;;;;4995797;28;20050;-64
2022/09/02 09:34:22;;;;;;;5.03;1.05;;;;;;;;;;5019286;28;20108;-65
2022/09/02 09:36:52;;;;;;;3.05;1.05;;;;;;;;;;5002073;28;20060;-65
2022/09/02 09:39:20;;;;;;;3.67;1.13;;;;;;;;;;5007950;28;20056;-61
2022/09/02 09:41:48;;;;;;;5.00;1.27;;;;;;;;;;5003649;28;20069;-63
2022/09/02 09:44:28;;;;;;;1.75;1.05;;;;;;;;;;5009070;28;20104;-59
2022/09/02 09:47:00;;;;;;;7.50;1.38;;;;;;;;;;5004805;28;20100;-61
2022/09/02 09:49:27;;;;;;;4.43;1.10;;;;;;;;;;5010209;28;20060;-63
2022/09/02 09:51:55;;;;;;;3.92;1.20;;;;;;;;;;5004922;28;20081;-64
2022/09/02 09:54:25;;;;;;;3.78;1.55;;;;;;;;;;5009944;28;20069;-63
2022/09/02 09:56:52;;;;;;;2.83;1.00;;;;;;;;;;5003353;28;20064;-61
2022/09/02 09:59:34;;;;;;;4.80;1.20;;;;;;;;;;5010477;28;20132;-61
2022/09/02 10:02:01;;;;;;;2.17;1.17;;;;;;;;;;5003023;28;20054;-61
2022/09/02 10:04:30;;;;;;;3.90;1.13;;;;;;;;;;5010650;28;20056;-61
2022/09/02 10:06:58;;;;;;;3.15;1.20;;;;;;;;;;5000820;28;20127;-59
2022/09/02 10:09:32;;;;;;;3.00;1.08;;;;;;;;;;5019575;28;20045;-59
2022/09/02 10:12:00;;;;;;;3.45;1.00;;;;;;;;;;4988413;28;20053;-61
2022/09/02 10:14:32;;;;;;;2.33;1.40;;;;;;;;;;5017134;28;20052;-61
2022/09/02 10:17:02;;;;;;;1.95;0.90;;;;;;;;;;5002716;28;20081;-60
2022/09/02 10:19:31;;;;;;;7.20;1.48;;;;;;;;;;5015556;28;20109;-60
2022/09/02 10:22:07;;;;;;;3.50;1.30;;;;;;;;;;4988819;28;20073;-62
2022/09/02 10:24:43;;;;;;;5.78;1.20;;;;;;;;;;5014749;28;20056;-64
2022/09/02 10:27:14;;;;;;;1.77;1.10;;;;;;;;;;4996862;28;20058;-63
2022/09/02 10:29:47;;;;;;;5.38;1.27;;;;;;;;;;5006143;28;20129;-64
2022/09/02 10:32:28;;;;;;;3.05;0.93;;;;;;;;;;5000213;28;20096;-60
2022/09/02 10:35:00;;;;;;;2.22;1.00;;;;;;;;;;5005089;28;20056;-59
2022/09/02 10:37:34;;;;;;;7.63;1.90;;;;;;;;;;4999037;28;20112;-62
2022/09/02 10:40:08;;;;;;;3.97;1.50;;;;;;;;;;5006085;28;20104;-62
2022/09/02 10:42:39;;;;;;;4.00;1.40;;;;;;;;;;5000071;28;20061;-64
2022/09/02 10:45:11;;;;;;;4.43;1.25;;;;;;;;;;5007126;28;20093;-60
2022/09/02 10:47:39;;;;;;;2.10;1.10;;;;;;;;;;4999977;28;20054;-59
2022/09/02 10:50:12;;;;;;;4.27;1.30;;;;;;;;;;5006722;28;20057;-59
2022/09/02 10:52:44;;;;;;;3.58;1.20;;;;;;;;;;5004932;28;20057;-60
2022/09/02 10:55:16;;;;;;;1.73;0.90;;;;;;;;;;5004567;28;20053;-60
2022/09/02 10:57:46;;;;;;;3.08;1.27;;;;;;;;;;5004679;28;20136;-59
2022/09/02 11:00:15;;;;;;;6.47;1.17;;;;;;;;;;5001346;28;20046;-59
2022/09/02 11:02:44;;;;;;;5.93;1.55;;;;;;;;;;5015428;28;20058;-64
2022/09/02 11:05:13;;;;;;;4.57;1.33;;;;;;;;;;4996463;28;20143;-59
2022/09/02 11:07:42;;;;;;;5.15;1.38;;;;;;;;;;5018424;28;20057;-64
2022/09/02 11:10:12;;;;;;;1.48;0.80;;;;;;;;;;5014912;28;20049;-62
2022/09/02 11:12:40;;;;;;;2.58;1.02;;;;;;;;;;5002792;28;20144;-63
2022/09/02 11:15:10;;;;;;;2.50;1.00;;;;;;;;;;4994664;28;20057;-63
2022/09/02 11:17:39;;;;;;;4.50;1.17;;;;;;;;;;5003866;28;20054;-64
2022/09/02 11:20:09;;;;;;;6.65;1.40;;;;;;;;;;4999937;28;20054;-63
2022/09/02 11:22:40;;;;;;;4.15;1.30;;;;;;;;;;5004472;28;20062;-59
2022/09/02 11:25:09;;;;;;;7.47;1.10;;;;;;;;;;4999047;28;20144;-64
2022/09/02 11:27:40;;;;;;;3.50;1.45;;;;;;;;;;4988160;28;20060;-64
2022/09/02 11:30:10;;;;;;;4.32;1.52;;;;;;;;;;4999739;28;20058;-64
2022/09/02 11:32:40;;;;;;;4.50;1.35;;;;;;;;;;5017928;28;20053;-63
2022/09/02 11:35:09;;;;;;;3.05;1.30;;;;;;;;;;4998063;28;20076;-62
2022/09/02 11:37:39;;;;;;;4.90;1.30;;;;;;;;;;5006595;28;20137;-64
2022/09/02 11:40:11;;;;;;;5.70;1.20;;;;;;;;;;5010707;28;20034;-64
2022/09/02 11:42:48;;;;;;;4.50;1.05;;;;;;;;;;5004776;28;20068;-62
2022/09/02 11:45:27;;;;;;;2.63;1.10;;;;;;;;;;5000186;28;20132;-60
2022/09/02 11:48:05;;;;;;;2.65;1.58;;;;;;;;;;5016049;28;20050;-63
2022/09/02 11:50:50;;;;;;;3.90;1.58;;;;;;;;;;4998873;28;20066;-61
2022/09/02 11:53:24;;;;;;;1.60;1.30;;;;;;;;;;5005098;28;20050;-62
2022/09/02 11:55:55;;;;;;;3.30;1.20;;;;;;;;;;4999163;28;20053;-64
2022/09/02 11:58:33;;;;;;;2.60;1.40;;;;;;;;;;5004329;28;20154;-63
2022/09/02 12:00:59;;;;;;;;;;;;;;;;;;4998020;28;20046;-60
2022/09/02 12:03:28;;;;;;;3.85;1.42;;;;;;;;;;5004181;28;19925;-63
2022/09/02 12:06:18;;;;;;;5.40;1.30;;;;;;;;;;4999450;28;20153;-64
2022/09/02 12:08:59;;;;;;;2.00;1.20;;;;;;;;;;4967453;28;20050;-63
2022/09/02 12:11:38;;;;;;;3.30;1.35;;;;;;;;;;4975378;28;20041;-63
2022/09/02 12:14:08;;;;;;;3.22;1.23;;;;;;;;;;4981882;28;20050;-62
2022/09/02 12:16:37;;;;;;;2.72;1.20;;;;;;;;;;4982435;28;20085;-60
2022/09/02 12:19:33;;;;;;;3.20;1.50;;;;;;;;;;4981088;28;20060;-63
2022/09/02 12:22:20;;;;;;;5.72;1.25;;;;;;;;;;4955455;28;20054;-64
2022/09/02 12:24:54;;;;;;;6.30;1.40;;;;;;;;;;4985148;28;20045;-60
2022/09/02 12:27:25;;;;;;;3.65;1.30;;;;;;;;;;4984000;28;20057;-63
2022/09/02 12:29:53;;;;;;;4.53;1.27;;;;;;;;;;4986387;28;20058;-63
2022/09/02 12:32:43;;;;;;;3.95;1.45;;;;;;;;;;4994022;28;20050;-60
2022/09/02 12:35:12;;;;;;;1.60;1.27;;;;;;;;;;4981371;28;20061;-63
2022/09/02 12:37:54;;;;;;;3.22;1.33;;;;;;;;;;4978326;28;20049;-63
2022/09/02 12:40:33;;;;;;;3.30;1.27;;;;;;;;;;4985441;28;20077;-62
2022/09/02 12:43:03;;;;;;;2.63;1.40;;;;;;;;;;4996467;28;20057;-61
2022/09/02 12:45:33;;;;;;;4.72;1.20;;;;;;;;;;4986749;28;20053;-65
2022/09/02 12:48:07;;;;;;;2.08;1.20;;;;;;;;;;4983596;28;20069;-63
2022/09/02 12:50:49;;;;;;;2.90;0.98;;;;;;;;;;5002789;28;20057;-63
2022/09/02 12:53:30;;;;;;;2.70;1.23;;;;;;;;;;4998306;28;20054;-62
2022/09/02 12:55:58;;;;;;;2.55;1.20;;;;;;;;;;4985414;28;20057;-63
2022/09/02 12:58:25;;;;;;;4.25;1.30;;;;;;;;;;4982680;28;20053;-64
2022/09/02 13:01:01;;;;;;;2.95;1.30;;;;;;;;;;4987856;28;20053;-64
2022/09/02 13:03:36;;;;;;;2.92;1.23;;;;;;;;;;5000844;28;20057;-65
2022/09/02 13:06:04;;;;;;;2.58;1.40;;;;;;;;;;4994210;28;20054;-64
2022/09/02 13:08:44;;;;;;;6.22;1.40;;;;;;;;;;4996429;28;20046;-64
2022/09/02 13:11:28;;;;;;;2.95;1.50;;;;;;;;;;5017549;28;20054;-65
2022/09/02 13:14:06;;;;;;;1.92;1.05;;;;;;;;;;5001498;28;20256;-62
2022/09/02 13:16:38;;;;;;;3.78;1.08;;;;;;;;;;4998693;28;20144;-63
2022/09/02 13:19:15;;;;;;;2.80;1.48;;;;;;;;;;4996572;28;20128;-64
2022/09/02 13:21:49;;;;;;;3.00;1.45;;;;;;;;;;5007149;28;20049;-62
2022/09/02 13:24:39;;;;;;;1.30;1.10;;;;;;;;;;5014797;28;20054;-63
2022/09/02 13:27:17;;;;;;;1.60;0.90;;;;;;;;;;4975000;28;20061;-63
2022/09/02 13:30:05;;;;;;;6.70;1.48;;;;;;;;;;5001226;28;20148;-61
2022/09/02 13:32:31;;;;;;;;;;;;;;;;;;5023756;28;20049;-63
2022/09/02 13:35:02;;;;;;;4.10;1.30;;;;;;;;;;5015895;28;19925;-63
2022/09/02 13:37:30;;;;;;;2.90;1.20;;;;;;;;;;5005259;28;20054;-64
2022/09/02 13:39:56;;;;;;;2.65;1.10;;;;;;;;;;4999002;28;20046;-65
2022/09/02 13:42:24;;;;;;;2.08;1.17;;;;;;;;;;5006864;28;20066;-64
2022/09/02 13:44:51;;;;;;;2.97;1.27;;;;;;;;;;5001444;28;20065;-64
2022/09/02 13:47:19;;;;;;;4.13;1.58;;;;;;;;;;5006423;28;20064;-63
2022/09/02 13:49:46;;;;;;;4.50;1.35;;;;;;;;;;5001763;28;20082;-63
2022/09/02 13:52:16;;;;;;;3.25;1.40;;;;;;;;;;5006109;28;20046;-63
2022/09/02 13:54:45;;;;;;;1.73;1.15;;;;;;;;;;5004525;28;20049;-64
2022/09/02 13:57:16;;;;;;;4.43;1.73;;;;;;;;;;5001475;28;20084;-63
2022/09/02 13:59:47;;;;;;;3.53;1.38;;;;;;;;;;5005573;28;20149;-64
2022/09/02 14:02:21;;;;;;;4.90;1.52;;;;;;;;;;5001054;28;20058;-64
2022/09/02 14:04:49;;;;;;;5.32;1.20;;;;;;;;;;5005512;28;20053;-64
2022/09/02 14:07:15;;;;;;;;;;;;;;;;;;4999692;28;20050;-62
2022/09/02 14:09:44;;;;;;;3.30;1.08;;;;;;;;;;5007021;28;19932;-64
2022/09/02 14:12:10;;;;;;;2.25;1.20;;;;;;;;;;4999206;28;20093;-63
2022/09/02 14:14:38;;;;;;;2.85;1.30;;;;;;;;;;5004345;28;20057;-61
2022/09/02 14:17:21;;;;;;;2.13;1.13;;;;;;;;;;4998648;28;20113;-64
2022/09/02 14:19:48;;;;;;;2.75;1.17;;;;;;;;;;5020464;28;20057;-60
2022/09/02 14:22:27;;;;;;;2.10;1.23;;;;;;;;;;5010339;28;20065;-62
2022/09/02 14:24:56;;;;;;;4.35;1.50;;;;;;;;;;5005643;28;20077;-62
2022/09/02 14:27:24;;;;;;;3.03;1.50;;;;;;;;;;5000271;28;20054;-63
2022/09/02 14:29:53;;;;;;;4.78;1.48;;;;;;;;;;5006288;28;20050;-61
2022/09/02 14:32:21;;;;;;;3.45;1.42;;;;;;;;;;4998647;28;20049;-63
2022/09/02 14:34:48;;;;;;;;;;;;;;;;;;5006141;28;20053;-61
2022/09/02 14:37:20;;;;;;;5.22;1.30;;;;;;;;;;4998837;28;20007;-63
2022/09/02 14:40:03;;;;;;;3.92;1.40;;;;;;;;;;5021194;28;20056;-60
2022/09/02 14:42:30;;;;;;;2.58;1.30;;;;;;;;;;5014576;28;20064;-62
2022/09/02 14:44:58;;;;;;;3.42;1.50;;;;;;;;;;5017777;28;20108;-63
2022/09/02 14:47:26;;;;;;;3.78;1.10;;;;;;;;;;4997108;28;20053;-59
2022/09/02 14:49:54;;;;;;;3.05;1.35;;;;;;;;;;5005828;28;20144;-62
2022/09/02 14:52:22;;;;;;;2.33;1.42;;;;;;;;;;4999942;28;20053;-63
2022/09/02 14:54:50;;;;;;;4.63;1.27;;;;;;;;;;5004766;28;20050;-58
2022/09/02 14:57:23;;;;;;;5.18;1.38;;;;;;;;;;5014167;28;20054;-60
2022/09/02 14:59:50;;;;;;;3.75;1.35;;;;;;;;;;5016837;28;20058;-59